Latest Weather Observations for Rockhampton

IDQ60801

Issued at 6:02 pm EST Monday 25 September 2017 (issued every 30 minutes, with the page automatically refreshed every 10 minutes)

About weather observations | Map of weather stations | Latest weather observations for QLD | Other Formats
Station Details ID: 039083 Name: ROCKHAMPTON AERO Lat: -23.38 Lon: 150.48 Height: 10.4 m
Data from the previous 72 hours. | See also: Recent months at Rockhampton
Date/Time
EST
Temp
°C
App
Temp
°C
Dew
Point
°C
Rel
Hum
%
Delta-T
°C
Wind Press
QNH
hPa
Press
MSL
hPa
Rain since
9am
mm
Dir  Spd
km/h
Gust
km/h
Spd
kts
Gust
kts
25/06:00pm 27.7 26.3 15.6 47 7.4 N 17 20 9 11 1012.7 1012.7 -
25/05:30pm 28.3 27.0 15.8 46 7.7 NNE 17 24 9 13 1012.5 1012.5 0.0
25/05:00pm 30.1 28.6 15.3 40 9.1 NNE 17 22 9 12 1012.1 1012.1 0.0
25/04:30pm 31.7 29.4 12.9 31 11.2 NNE 17 22 9 12 1011.8 1011.8 0.0
25/04:00pm 32.6 31.3 12.4 29 12.0 NNW 11 19 6 10 1011.8 1011.8 0.0
25/03:30pm 32.8 31.0 9.6 24 13.2 NW 9 20 5 11 1011.9 1011.9 0.0
25/03:00pm 32.7 31.0 9.7 24 13.1 WNW 9 19 5 10 1012.1 1012.1 0.0
25/02:30pm 32.0 29.8 10.7 27 12.3 NNW 13 24 7 13 1012.4 1012.4 0.0
25/02:00pm 31.4 30.2 11.5 29 11.6 NW 9 19 5 10 1012.9 1012.9 0.0
25/01:30pm 31.8 30.0 10.9 27 12.1 WNW 11 24 6 13 1013.4 1013.4 0.0
25/01:00pm 31.6 30.4 12.8 31 11.2 NW 11 19 6 10 1013.9 1013.9 0.0
25/12:30pm 30.1 27.8 11.7 32 10.7 N 15 20 8 11 1014.4 1014.4 0.0
25/12:00pm 29.6 27.9 13.7 37 9.5 NNW 15 22 8 12 1015.0 1015.0 0.0
25/11:30am 28.4 27.1 14.7 43 8.3 N 15 24 8 13 1015.6 1015.6 0.0
25/11:00am 28.4 27.7 15.3 45 8.0 NNE 13 24 7 13 1016.1 1016.1 0.0
25/10:30am 27.0 25.5 15.3 48 7.1 N 17 24 9 13 1016.8 1016.8 0.0
25/10:00am 26.8 25.3 15.4 49 6.9 N 17 30 9 16 1017.0 1017.0 0.0
25/09:30am 25.7 24.9 16.0 55 5.9 NNW 15 20 8 11 1017.3 1017.3 0.0
25/09:00am 25.4 24.6 17.2 60 5.1 N 17 24 9 13 1017.5 1017.5 0.0
25/08:30am 23.2 23.4 17.6 71 3.5 N 13 20 7 11 1017.5 1017.5 0.0
25/08:00am 22.0 23.3 17.5 75 2.8 N 7 11 4 6 1017.6 1017.6 0.0
25/07:30am 19.4 21.8 16.9 85 1.5 CALM 0 0 0 0 1017.6 1017.6 0.0
25/07:25am 19.5 22.0 17.2 86 1.4 CALM 0 0 0 0 1017.4 1017.4 0.0
25/07:01am 17.0 18.0 16.3 96 0.4 S 6 6 3 3 1017.2 1017.2 0.0
25/07:00am 16.9 17.9 16.4 97 0.3 S 6 6 3 3 1017.2 1017.2 0.0
25/06:46am 15.9 16.6 15.7 99 0.1 S 6 7 3 4 1017.0 1017.0 0.0
25/06:35am 15.6 16.2 15.3 98 0.2 S 6 7 3 4 1016.8 1016.8 0.0
25/06:30am 15.4 15.9 15.1 98 0.2 S 6 7 3 4 1016.7 1016.7 0.0
25/06:09am 15.4 15.6 14.7 96 0.4 SSW 7 9 4 5 1016.4 1016.4 0.0
25/06:00am 15.8 17.3 15.6 99 0.1 N 2 7 1 4 1016.3 1016.3 0.0
25/05:30am 16.1 16.6 15.6 97 0.3 N 7 9 4 5 1015.5 1015.5 0.0
25/05:00am 16.0 17.7 15.1 94 0.5 CALM 0 0 0 0 1015.4 1015.4 0.0
25/04:57am 16.1 17.8 15.2 94 0.5 CALM 0 0 0 0 1015.4 1015.4 0.0
25/04:48am 16.1 17.7 14.9 93 0.7 CALM 0 0 0 0 1015.3 1015.3 0.0
25/04:30am 16.2 17.3 15.5 96 0.4 SW 4 9 2 5 1015.1 1015.1 0.0
25/04:10am 15.4 16.8 14.3 93 0.6 CALM 0 0 0 0 1015.0 1015.0 0.0
25/04:00am 15.6 17.1 14.7 94 0.5 CALM 0 0 0 0 1015.0 1015.0 0.0
25/03:30am 15.6 17.0 14.5 93 0.6 CALM 0 0 0 0 1014.8 1014.8 0.0
25/03:00am 16.5 18.3 15.6 94 0.5 CALM 0 0 0 0 1014.8 1014.8 0.0
25/02:30am 16.3 17.9 14.9 91 0.8 CALM 0 0 0 0 1014.8 1014.8 0.0
25/02:00am 16.7 18.3 15.0 90 1.0 CALM 0 0 0 0 1015.0 1015.0 0.0
25/01:30am 16.6 17.7 14.7 88 1.1 SW 2 9 1 5 1015.1 1015.1 0.0
25/01:00am 17.6 18.6 15.4 87 1.3 SSW 4 6 2 3 1015.3 1015.3 0.0
25/12:30am 17.6 18.1 15.0 85 1.5 SW 6 9 3 5 1015.5 1015.5 0.0
25/12:00am 18.2 20.2 16.0 87 1.3 CALM 0 0 0 0 1015.5 1015.5 0.0
 
Date/Time
EST
Temp
°C
App
Temp
°C
Dew
Point
°C
Rel
Hum
%
Delta-T
°C
Wind Press
QNH
hPa
Press
MSL
hPa
Rain since
9am
mm
Dir  Spd
km/h
Gust
km/h
Spd
kts
Gust
kts
24/11:30pm 18.6 19.2 15.4 81 1.9 WNW 6 6 3 3 1015.6 1015.6 0.0
24/11:00pm 19.9 20.5 16.8 82 1.9 NW 9 13 5 7 1015.6 1015.6 0.0
24/10:30pm 20.3 20.4 16.5 79 2.3 N 11 13 6 7 1015.6 1015.6 0.0
24/10:00pm 20.6 20.2 16.1 75 2.7 N 13 15 7 8 1015.6 1015.6 0.0
24/09:30pm 21.1 20.9 15.6 71 3.3 NNW 11 15 6 8 1015.6 1015.6 0.0
24/09:00pm 21.5 20.5 14.7 65 4.0 N 13 17 7 9 1015.5 1015.5 0.0
24/08:30pm 22.0 20.4 12.9 56 5.2 N 13 17 7 9 1015.1 1015.1 0.0
24/08:00pm 23.1 20.8 11.7 48 6.4 N 15 20 8 11 1014.7 1014.7 0.0
24/07:30pm 23.9 21.2 11.7 46 6.9 N 17 20 9 11 1014.2 1014.2 0.0
24/07:00pm 24.4 21.8 11.9 45 7.1 N 17 20 9 11 1013.8 1013.8 0.0
24/06:30pm 25.3 24.1 15.0 53 6.2 N 15 19 8 10 1013.4 1013.4 0.0
24/06:00pm 26.2 23.3 13.0 44 7.7 N 20 28 11 15 1013.1 1013.1 0.0
24/05:30pm 27.6 24.6 12.5 39 8.8 NNE 20 26 11 14 1012.8 1012.8 0.0
24/05:00pm 28.9 25.1 12.3 36 9.7 NNE 24 33 13 18 1012.4 1012.4 0.0
24/04:30pm 30.3 25.9 11.8 32 10.8 NNE 26 33 14 18 1012.1 1012.1 0.0
24/04:00pm 31.1 27.4 10.3 27 11.9 NNW 20 33 11 18 1012.0 1012.0 0.0
24/03:30pm 32.5 28.2 7.0 20 13.9 NNW 19 30 10 16 1011.8 1011.8 0.0
24/03:00pm 32.1 27.8 7.8 22 13.4 NW 20 30 11 16 1011.9 1011.9 0.0
24/02:30pm 33.1 29.2 8.5 22 13.8 NNW 19 30 10 16 1012.2 1012.2 0.0
24/02:00pm 31.9 28.9 10.5 26 12.3 NW 17 24 9 13 1012.6 1012.6 0.0
24/01:30pm 32.9 29.8 10.3 25 13.0 NW 17 26 9 14 1013.2 1013.2 0.0
24/01:00pm 32.4 29.7 11.6 28 12.2 NW 17 28 9 15 1013.7 1013.7 0.0
24/12:30pm 30.9 28.9 12.7 32 10.8 NNW 15 28 8 15 1014.2 1014.2 0.0
24/12:00pm 30.4 28.6 13.3 35 10.2 WNW 15 28 8 15 1014.8 1014.8 0.0
24/11:30am 29.5 28.4 14.2 39 9.2 NW 13 20 7 11 1015.4 1015.4 0.0
24/11:00am 28.3 27.5 15.2 44 8.0 NW 13 24 7 13 1016.0 1016.0 0.0
24/10:30am 27.2 26.1 15.2 47 7.3 NW 15 26 8 14 1016.5 1016.5 0.0
24/10:00am 25.4 24.4 15.7 55 5.9 NNW 15 28 8 15 1017.0 1017.0 0.0
24/09:30am 25.1 23.9 16.1 57 5.5 NNW 17 26 9 14 1017.4 1017.4 0.0
24/09:00am 23.8 23.3 17.0 65 4.2 NNW 15 19 8 10 1017.6 1017.6 0.0
24/08:30am 24.1 24.2 17.5 66 4.1 N 13 22 7 12 1017.7 1017.7 0.0
24/08:00am 22.2 23.8 18.2 78 2.5 N 7 11 4 6 1017.6 1017.6 0.0
24/07:30am 20.5 23.2 17.7 84 1.7 CALM 0 6 0 3 1017.3 1017.3 0.0
24/07:00am 17.6 19.6 16.1 91 0.9 CALM 0 0 0 0 1017.0 1017.0 0.0
24/06:30am 16.1 17.8 15.1 94 0.6 CALM 0 0 0 0 1016.8 1016.8 0.0
24/06:00am 15.0 16.4 14.5 97 0.3 CALM 0 0 0 0 1016.5 1016.5 0.0
24/05:30am 14.9 16.2 14.2 96 0.4 CALM 0 0 0 0 1016.3 1016.3 0.0
24/05:00am 15.2 16.7 14.7 97 0.3 CALM 0 0 0 0 1016.0 1016.0 0.0
24/04:30am 15.8 17.4 14.9 94 0.5 CALM 0 0 0 0 1015.7 1015.7 0.0
24/04:00am 15.9 17.5 15.0 94 0.5 CALM 0 0 0 0 1015.6 1015.6 0.0
24/03:30am 16.3 18.0 15.1 93 0.7 CALM 0 0 0 0 1015.6 1015.6 0.0
24/03:00am 16.5 18.4 15.8 96 0.4 CALM 0 0 0 0 1015.5 1015.5 0.0
24/02:30am 16.9 18.9 16.1 95 0.5 CALM 0 0 0 0 1015.6 1015.6 0.0
24/02:00am 17.2 18.4 16.0 93 0.7 SSE 4 6 2 3 1015.8 1015.8 0.0
24/01:30am 17.3 17.9 15.9 91 0.8 SSE 7 9 4 5 1016.0 1016.0 0.0
24/01:00am 17.4 19.4 15.9 91 0.9 CALM 0 0 0 0 1016.1 1016.1 0.0
24/12:30am 18.2 20.1 15.7 85 1.5 CALM 0 0 0 0 1016.5 1016.5 0.0
24/12:00am 18.4 19.5 16.7 90 1.0 N 6 7 3 4 1016.7 1016.7 0.0
 
Date/Time
EST
Temp
°C
App
Temp
°C
Dew
Point
°C
Rel
Hum
%
Delta-T
°C
Wind Press
QNH
hPa
Press
MSL
hPa
Rain since
9am
mm
Dir  Spd
km/h
Gust
km/h
Spd
kts
Gust
kts
23/11:30pm 18.9 19.7 16.4 85 1.5 N 7 9 4 5 1016.9 1016.9 0.0
23/11:00pm 19.2 20.0 16.4 84 1.7 N 7 11 4 6 1017.0 1017.0 0.0
23/10:30pm 19.1 19.3 15.7 80 2.0 NNE 9 11 5 6 1017.1 1017.1 0.0
23/10:00pm 19.9 20.5 15.9 78 2.4 N 7 9 4 5 1017.2 1017.2 0.0
23/09:30pm 20.8 21.4 15.8 73 3.0 N 7 9 4 5 1017.3 1017.3 0.0
23/09:00pm 21.3 21.4 15.6 70 3.4 N 9 13 5 7 1017.3 1017.3 0.0
23/08:30pm 21.9 21.5 15.3 66 3.9 N 11 17 6 9 1017.0 1017.0 0.0
23/08:00pm 22.9 22.1 15.2 62 4.6 N 13 19 7 10 1016.7 1016.7 0.0
23/07:30pm 23.4 22.6 15.0 59 5.0 N 13 20 7 11 1016.2 1016.2 0.0
23/07:00pm 24.4 22.9 14.2 53 6.0 N 15 19 8 10 1015.8 1015.8 0.0
23/06:30pm 25.7 23.5 13.2 46 7.3 N 17 24 9 13 1015.2 1015.2 0.0
23/06:00pm 27.0 23.8 11.4 37 8.9 N 19 28 10 15 1014.8 1014.8 0.0
23/05:30pm 28.1 24.9 11.3 35 9.6 NNE 19 28 10 15 1014.4 1014.4 0.0
23/05:00pm 28.7 26.8 15.1 43 8.3 NNE 19 30 10 16 1014.1 1014.1 0.0
23/04:30pm 29.7 26.9 14.3 39 9.3 NE 22 30 12 16 1013.8 1013.8 0.0
23/04:00pm 31.1 27.5 10.0 27 12.0 N 19 26 10 14 1013.8 1013.8 0.0
23/03:30pm 31.1 27.8 9.4 26 12.2 NNW 17 22 9 12 1013.7 1013.7 0.0
23/03:00pm 31.8 28.3 10.3 26 12.3 N 19 26 10 14 1013.6 1013.6 0.0
23/02:30pm 31.8 28.5 10.9 27 12.1 NNW 19 26 10 14 1013.8 1013.8 0.0
23/02:00pm 31.2 27.4 9.9 26 12.1 N 20 30 11 16 1014.1 1014.1 0.0
23/01:30pm 31.4 29.1 11.7 29 11.5 N 15 22 8 12 1014.7 1014.7 0.0
23/01:00pm 30.4 27.4 11.9 32 10.8 N 19 28 10 15 1015.2 1015.2 0.0
23/12:30pm 31.3 29.6 12.5 31 11.1 NNW 13 30 7 16 1015.9 1015.9 0.0
23/12:00pm 29.0 26.7 12.9 37 9.5 NNW 17 28 9 15 1016.5 1016.5 0.0
23/11:30am 28.4 27.5 13.8 40 8.7 NNW 11 20 6 11 1017.2 1017.2 0.0
23/11:00am 28.0 25.4 13.2 40 8.7 N 19 26 10 14 1017.7 1017.7 0.0
23/10:30am 26.7 25.1 14.9 48 7.1 NNW 17 24 9 13 1018.3 1018.3 0.0
23/10:00am 26.7 24.8 15.3 49 6.9 N 19 24 10 13 1018.8 1018.8 0.0
23/09:30am 25.8 25.2 16.7 57 5.6 NNW 15 24 8 13 1019.0 1019.0 0.0
23/09:00am 25.1 24.5 16.6 59 5.2 N 15 20 8 11 1019.2 1019.2 0.0
23/08:30am 23.3 23.5 16.8 67 4.0 N 11 15 6 8 1019.2 1019.2 0.0
23/08:00am 22.0 24.3 17.6 76 2.7 SW 2 7 1 4 1019.0 1019.0 0.0
23/07:30am 19.4 20.8 17.4 88 1.2 SSW 6 7 3 4 1018.7 1018.7 0.0
23/07:00am 17.9 19.4 16.7 93 0.7 SE 4 6 2 3 1018.4 1018.4 0.0
23/06:30am 16.2 17.9 15.3 94 0.5 CALM 0 0 0 0 1017.8 1017.8 0.0
23/06:00am 15.8 17.6 15.5 98 0.2 CALM 0 0 0 0 1017.5 1017.5 0.0
23/05:30am 16.1 17.9 15.6 97 0.3 CALM 0 6 0 3 1017.6 1017.6 0.0
23/05:00am 16.3 18.2 15.8 97 0.3 CALM 0 0 0 0 1017.4 1017.4 0.0
23/04:30am 16.6 18.6 15.9 96 0.4 CALM 0 0 0 0 1017.2 1017.2 0.0
23/04:00am 17.1 18.8 16.3 95 0.5 ESE 2 7 1 4 1016.9 1016.9 0.0
23/03:30am 17.5 19.4 16.8 96 0.4 ESE 2 7 1 4 1016.9 1016.9 0.0
23/03:00am 17.2 18.8 16.9 98 0.2 NE 4 7 2 4 1016.8 1016.8 0.0
23/02:30am 17.8 20.1 16.8 94 0.6 CALM 0 0 0 0 1017.3 1017.3 0.0
23/02:00am 17.6 20.0 16.9 96 0.4 CALM 0 0 0 0 1017.5 1017.5 0.0
23/01:30am 18.0 19.7 17.2 95 0.5 NNW 4 7 2 4 1017.6 1017.6 0.0
23/01:00am 18.6 19.6 16.8 89 1.1 NNW 7 9 4 5 1017.8 1017.8 0.0
23/12:30am 19.5 20.3 17.2 86 1.4 N 9 9 5 5 1017.9 1017.9 0.0
23/12:00am 19.3 20.1 17.2 88 1.3 NNE 9 13 5 7 1017.9 1017.9 0.0
 
Date/Time
EST
Temp
°C
App
Temp
°C
Dew
Point
°C
Rel
Hum
%
Delta-T
°C
Wind Press
QNH
hPa
Press
MSL
hPa
Rain since
9am
mm
Dir  Spd
km/h
Gust
km/h
Spd
kts
Gust
kts
22/11:30pm 19.5 20.6 17.0 85 1.5 N 7 9 4 5 1018.2 1018.2 0.0
22/11:00pm 19.8 20.5 17.0 84 1.7 NE 9 13 5 7 1018.2 1018.2 0.0
22/10:30pm 20.3 20.8 17.4 83 1.8 N 11 13 6 7 1018.2 1018.2 0.0
22/10:00pm 19.9 20.7 17.4 85 1.5 NNE 9 13 5 7 1018.1 1018.1 0.0
22/09:30pm 20.9 21.1 17.6 81 2.0 NNE 13 17 7 9 1017.9 1017.9 0.0
22/09:00pm 21.4 22.3 17.5 78 2.4 N 9 15 5 8 1017.8 1017.8 0.0
22/08:30pm 22.1 21.9 17.6 75 2.8 N 15 20 8 11 1017.6 1017.6 0.0
22/08:00pm 22.5 22.7 17.7 74 3.0 NNE 13 19 7 10 1017.4 1017.4 0.0
22/07:30pm 22.7 22.2 17.9 74 3.0 NNE 17 24 9 13 1017.1 1017.1 0.0
22/07:00pm 23.2 22.1 17.7 71 3.4 NNE 20 30 11 16 1016.7 1016.7 0.0
22/06:30pm 24.1 22.4 17.1 65 4.3 NNE 22 30 12 16 1016.3 1016.3 0.0

Other Formats:

Comma delimited format used in spreadsheet applications
http://www.bom.gov.au/fwo/IDQ60801/IDQ60801.94374.axf

JavaScript Object Notation format (JSON) in row-major order
http://www.bom.gov.au/fwo/IDQ60801/IDQ60801.94374.json